Time;durP1;ratioP1;P1;durP2;ratioP2;P2;SDS_P1;SDS_P2;PMS_P1;PMS_P2;Temp;Humidity;BMP_temperature;BMP_pressure;BME280_temperature;BME280_humidity;BME280_pressure;Samples;Min_cycle;Max_cycle;Signal;HPM_P1;HPM_P2
2023/08/16 00:02:13;;;;;;;4.57;2.55;;;;;;;;;;4936524;29;20066;-87
2023/08/16 00:04:46;;;;;;;6.50;2.30;;;;;;;;;;4931545;29;20060;-87
2023/08/16 00:07:27;;;;;;;6.57;2.97;;;;;;;;;;4934281;29;20058;-87
2023/08/16 00:10:16;;;;;;;8.70;2.72;;;;;;;;;;4931369;29;20071;-87
2023/08/16 00:12:46;;;;;;;6.05;2.60;;;;;;;;;;4930734;29;20125;-87
2023/08/16 00:15:17;;;;;;;7.03;2.42;;;;;;;;;;4930227;29;20052;-87
2023/08/16 00:17:45;;;;;;;4.72;2.20;;;;;;;;;;4931027;29;20087;-87
2023/08/16 00:20:26;;;;;;;7.05;2.85;;;;;;;;;;4931343;29;20143;-87
2023/08/16 00:22:54;;;;;;;10.88;3.15;;;;;;;;;;4951248;29;20100;-90
2023/08/16 00:25:25;;;;;;;5.47;2.38;;;;;;;;;;4933458;29;20086;-91
2023/08/16 00:28:01;;;;;;;6.57;2.70;;;;;;;;;;4933945;29;20056;-90
2023/08/16 00:30:29;;;;;;;8.05;2.72;;;;;;;;;;4950714;29;20135;-90
2023/08/16 00:32:59;;;;;;;8.57;3.20;;;;;;;;;;4951576;29;20062;-90
2023/08/16 00:35:46;;;;;;;7.75;3.40;;;;;;;;;;4937167;29;20056;-90
2023/08/16 00:38:16;;;;;;;9.57;3.90;;;;;;;;;;4940911;29;20131;-89
2023/08/16 00:40:51;;;;;;;7.15;4.22;;;;;;;;;;4958939;29;20082;-90
2023/08/16 00:43:19;;;;;;;7.10;3.15;;;;;;;;;;4957701;29;20055;-90
2023/08/16 00:45:48;;;;;;;5.82;2.97;;;;;;;;;;4958368;29;20040;-90
2023/08/16 00:48:24;;;;;;;6.25;3.30;;;;;;;;;;4959182;29;20058;-91
2023/08/16 00:51:02;;;;;;;4.65;2.70;;;;;;;;;;4942190;29;20123;-91
2023/08/16 00:53:35;;;;;;;8.00;3.17;;;;;;;;;;4940753;29;20133;-90
2023/08/16 00:56:04;;;;;;;7.00;3.58;;;;;;;;;;4939928;29;20039;-90
2023/08/16 00:58:37;;;;;;;6.93;4.00;;;;;;;;;;4942160;29;20067;-90
2023/08/16 01:01:07;;;;;;;14.27;4.70;;;;;;;;;;4955117;29;20055;-90
2023/08/16 01:03:37;;;;;;;6.95;4.70;;;;;;;;;;4956334;28;20115;-90
2023/08/16 01:06:09;;;;;;;8.63;4.57;;;;;;;;;;4939625;29;20084;-89
2023/08/16 01:08:40;;;;;;;10.15;4.78;;;;;;;;;;4938091;29;20043;-90
2023/08/16 01:11:31;;;;;;;11.18;6.07;;;;;;;;;;4938245;29;20066;-89
2023/08/16 01:13:58;;;;;;;;;;;;;;;;;;4953794;29;20083;-90
2023/08/16 01:16:28;;;;;;;16.65;6.78;;;;;;;;;;4936441;29;19922;-89
2023/08/16 01:19:01;;;;;;;13.50;6.60;;;;;;;;;;4936249;29;20070;-89
2023/08/16 01:21:31;;;;;;;17.80;8.23;;;;;;;;;;4939761;29;20104;-89
2023/08/16 01:24:22;;;;;;;15.90;9.98;;;;;;;;;;4936897;29;20055;-89
2023/08/16 01:26:58;;;;;;;25.30;11.02;;;;;;;;;;4935828;29;20075;-89
2023/08/16 01:29:31;;;;;;;15.82;9.30;;;;;;;;;;4935682;29;20052;-89
2023/08/16 01:32:02;;;;;;;17.55;8.77;;;;;;;;;;4952682;29;20048;-89
2023/08/16 01:34:35;;;;;;;10.82;7.25;;;;;;;;;;4934812;29;20315;-90
2023/08/16 01:37:05;;;;;;;19.73;10.55;;;;;;;;;;4951546;29;20111;-91
2023/08/16 01:39:33;;;;;;;15.90;10.23;;;;;;;;;;4934480;29;20123;-89
2023/08/16 01:42:17;;;;;;;14.70;9.77;;;;;;;;;;4950316;29;20059;-89
2023/08/16 01:44:50;;;;;;;16.25;9.95;;;;;;;;;;4935939;29;20239;-89
2023/08/16 01:47:21;;;;;;;15.88;10.45;;;;;;;;;;4933120;29;20051;-89
2023/08/16 01:49:57;;;;;;;14.20;9.32;;;;;;;;;;4933065;29;20055;-87
2023/08/16 01:52:30;;;;;;;14.40;8.75;;;;;;;;;;4933528;29;20047;-86
2023/08/16 01:55:02;;;;;;;13.77;9.20;;;;;;;;;;4942132;29;20159;-87
2023/08/16 01:57:32;;;;;;;13.50;8.88;;;;;;;;;;4932305;29;20484;-87
2023/08/16 02:00:03;;;;;;;14.50;8.88;;;;;;;;;;4931270;29;20062;-86
2023/08/16 02:02:36;;;;;;;17.17;8.82;;;;;;;;;;4932163;29;20352;-87
2023/08/16 02:05:15;;;;;;;14.00;8.70;;;;;;;;;;4933382;29;20043;-86
2023/08/16 02:07:47;;;;;;;13.77;9.18;;;;;;;;;;4933750;29;20051;-86
2023/08/16 02:10:27;;;;;;;13.73;8.63;;;;;;;;;;4932261;29;20421;-87
2023/08/16 02:12:58;;;;;;;20.70;8.75;;;;;;;;;;4930847;29;20083;-86
2023/08/16 02:15:29;;;;;;;16.40;8.50;;;;;;;;;;4930493;29;20463;-86
2023/08/16 02:18:31;;;;;;;17.48;8.52;;;;;;;;;;4947674;29;20097;-86
2023/08/16 02:21:04;;;;;;;13.75;7.00;;;;;;;;;;4930309;29;20087;-87
2023/08/16 02:23:44;;;;;;;11.85;7.90;;;;;;;;;;4931291;29;20051;-88
2023/08/16 02:26:12;;;;;;;14.27;9.20;;;;;;;;;;4930813;29;20404;-88
2023/08/16 02:28:53;;;;;;;14.30;7.60;;;;;;;;;;4946943;29;20485;-88
2023/08/16 02:31:24;;;;;;;11.93;7.88;;;;;;;;;;4932610;29;20317;-88
2023/08/16 02:33:58;;;;;;;13.30;7.53;;;;;;;;;;4931604;29;20051;-87
2023/08/16 02:36:33;;;;;;;14.43;7.78;;;;;;;;;;4951367;29;20048;-88
2023/08/16 02:39:08;;;;;;;13.00;7.55;;;;;;;;;;4933993;29;20058;-87
2023/08/16 02:41:41;;;;;;;12.75;7.53;;;;;;;;;;4932325;29;20058;-88
2023/08/16 02:44:20;;;;;;;12.00;8.10;;;;;;;;;;4934262;29;20056;-86
2023/08/16 02:47:05;;;;;;;15.50;10.13;;;;;;;;;;4932786;29;20114;-87
2023/08/16 02:50:07;;;;;;;19.00;9.32;;;;;;;;;;4933764;29;20063;-87
2023/08/16 02:52:53;;;;;;;17.25;8.98;;;;;;;;;;4950191;29;20043;-87
2023/08/16 02:55:44;;;;;;;10.98;7.22;;;;;;;;;;4937814;29;20039;-88
2023/08/16 02:58:21;;;;;;;18.13;9.40;;;;;;;;;;4929228;29;20087;-88
2023/08/16 03:00:56;;;;;;;16.55;8.20;;;;;;;;;;4915140;29;20099;-88
2023/08/16 03:03:46;;;;;;;;;;;;;;;;;;4914697;29;20081;-88
2023/08/16 03:06:19;;;;;;;10.48;7.28;;;;;;;;;;4915829;29;19941;-87
2023/08/16 03:09:23;;;;;;;12.00;7.15;;;;;;;;;;4915957;29;20050;-87
2023/08/16 03:12:13;;;;;;;11.20;6.57;;;;;;;;;;4916553;29;20084;-88
2023/08/16 03:14:54;;;;;;;12.05;6.93;;;;;;;;;;4917551;29;20063;-87
2023/08/16 03:18:01;;;;;;;11.48;7.25;;;;;;;;;;4915333;29;20286;-88
2023/08/16 03:20:42;;;;;;;13.98;6.65;;;;;;;;;;4914995;29;20067;-88
2023/08/16 03:23:35;;;;;;;14.68;7.10;;;;;;;;;;4917244;29;20086;-87
2023/08/16 03:26:19;;;;;;;12.27;8.10;;;;;;;;;;4917429;29;20052;-87
2023/08/16 04:23:27;;;;;;;18.90;8.35;;;;;;;;;;5802623;23;20026;-88
2023/08/16 04:29:35;;;;;;;13.13;7.30;;;;;;;;;;5386699;23;20059;-87
2023/08/16 04:32:33;;;;;;;13.10;8.13;;;;;;;;;;4947889;28;20103;-89
2023/08/16 04:38:43;;;;;;;18.48;7.95;;;;;;;;;;4962994;29;20022;-89
2023/08/16 04:41:28;;;;;;;16.85;8.32;;;;;;;;;;4936417;29;20035;-90
2023/08/16 12:30:33;;;;;;;;;;;;;;;;;;;;;
2023/08/16 12:32:58;;;;;;;6.88;1.10;;;;;;;;;;4903313;29;20517;-90
2023/08/16 20:28:05;;;;;;;4.63;1.52;;;;;;;;;;4404964;23;20039;-90
2023/08/16 20:30:50;;;;;;;7.30;1.33;;;;;;;;;;4943092;29;20060;-89
2023/08/16 20:33:22;;;;;;;5.22;1.30;;;;;;;;;;4931579;29;20066;-89
2023/08/16 20:35:59;;;;;;;8.43;1.48;;;;;;;;;;4932433;29;20056;-90
2023/08/16 20:38:32;;;;;;;4.95;1.40;;;;;;;;;;4933842;29;20047;-89
2023/08/16 20:41:25;;;;;;;5.53;1.50;;;;;;;;;;4934680;29;20103;-90
2023/08/16 20:44:06;;;;;;;6.22;1.88;;;;;;;;;;4951251;29;20107;-90
2023/08/16 20:47:15;;;;;;;6.03;1.48;;;;;;;;;;4936553;29;20170;-90
2023/08/16 20:49:48;;;;;;;8.27;2.03;;;;;;;;;;4915395;29;20147;-90
2023/08/16 20:52:18;;;;;;;5.50;1.33;;;;;;;;;;4933482;29;20059;-87
2023/08/16 20:54:48;;;;;;;7.13;2.13;;;;;;;;;;4933259;29;20052;-88
2023/08/16 20:57:32;;;;;;;5.45;1.60;;;;;;;;;;4949903;29;20075;-88
2023/08/16 21:00:03;;;;;;;;;;;;;;;;;;4929775;29;20052;-87
2023/08/16 21:02:35;;;;;;;10.05;1.42;;;;;;;;;;4928866;29;19922;-87
2023/08/16 21:05:09;;;;;;;4.88;1.42;;;;;;;;;;4930780;29;20260;-87
2023/08/16 21:07:37;;;;;;;5.85;1.25;;;;;;;;;;4932321;29;20055;-88
2023/08/16 21:10:17;;;;;;;5.60;1.27;;;;;;;;;;4932885;29;20071;-87
2023/08/16 21:16:24;;;;;;;7.20;1.38;;;;;;;;;;4950213;29;20157;-86
2023/08/16 21:18:55;;;;;;;3.70;1.13;;;;;;;;;;4931982;29;20165;-87
2023/08/16 21:21:26;;;;;;;6.95;1.67;;;;;;;;;;4947281;29;20052;-86
2023/08/16 21:24:09;;;;;;;3.25;1.20;;;;;;;;;;4932665;29;20047;-87
2023/08/16 21:26:49;;;;;;;12.90;1.83;;;;;;;;;;4929957;29;20055;-87
2023/08/16 21:29:25;;;;;;;8.13;1.70;;;;;;;;;;4930217;29;20044;-88
2023/08/16 21:32:12;;;;;;;4.03;1.45;;;;;;;;;;4930644;29;20064;-88
2023/08/16 21:35:14;;;;;;;4.55;1.20;;;;;;;;;;4933281;29;20071;-87
2023/08/16 21:37:47;;;;;;;2.97;1.30;;;;;;;;;;4932485;29;20416;-88
2023/08/16 21:40:17;;;;;;;11.30;1.67;;;;;;;;;;4933899;29;20903;-87
2023/08/16 21:43:23;;;;;;;5.25;1.40;;;;;;;;;;4930880;29;20051;-87
2023/08/16 21:46:05;;;;;;;3.25;1.20;;;;;;;;;;4928120;29;20118;-88
2023/08/16 21:48:35;;;;;;;4.60;0.90;;;;;;;;;;4927350;29;20051;-88
2023/08/16 21:51:05;;;;;;;3.58;1.27;;;;;;;;;;4927573;29;20052;-88
2023/08/16 21:53:40;;;;;;;5.93;1.27;;;;;;;;;;4926659;29;20340;-88
2023/08/16 21:56:33;;;;;;;6.45;1.30;;;;;;;;;;4929348;29;20151;-87
2023/08/16 21:59:06;;;;;;;3.15;1.02;;;;;;;;;;4927707;29;20048;-88
2023/08/16 22:01:53;;;;;;;7.95;1.35;;;;;;;;;;4926644;29;20060;-88
2023/08/16 22:04:26;;;;;;;8.77;1.20;;;;;;;;;;4927104;29;20066;-87
2023/08/16 22:06:59;;;;;;;6.07;1.30;;;;;;;;;;4947862;29;20122;-89
2023/08/16 22:09:28;;;;;;;8.88;1.58;;;;;;;;;;4934396;29;20316;-89
2023/08/16 22:11:58;;;;;;;4.95;1.52;;;;;;;;;;4929123;29;20534;-89
2023/08/16 22:14:28;;;;;;;6.20;1.48;;;;;;;;;;4945287;29;20044;-89
2023/08/16 22:17:01;;;;;;;9.55;1.10;;;;;;;;;;4945029;29;20244;-89
2023/08/16 22:19:37;;;;;;;8.90;2.13;;;;;;;;;;4925893;29;20468;-89
2023/08/16 22:22:06;;;;;;;4.18;1.30;;;;;;;;;;4927036;29;20357;-89
2023/08/16 22:24:34;;;;;;;4.95;1.35;;;;;;;;;;4948250;29;20062;-90
2023/08/16 22:27:04;;;;;;;6.07;1.27;;;;;;;;;;4922912;29;20560;-87
2023/08/16 22:29:33;;;;;;;4.72;1.98;;;;;;;;;;4909771;29;20064;-87
2023/08/16 22:32:03;;;;;;;3.72;1.23;;;;;;;;;;4908183;29;20392;-87
2023/08/16 22:34:31;;;;;;;7.90;1.00;;;;;;;;;;4907303;29;20052;-87
2023/08/16 22:37:04;;;;;;;6.53;1.00;;;;;;;;;;4911403;29;20258;-90
2023/08/16 22:39:43;;;;;;;;;;;;;;;;;;;;;
2023/08/16 22:45:42;;;;;;;7.43;1.40;;;;;;;;;;4924338;29;20039;-89
2023/08/16 22:48:10;;;;;;;5.55;1.10;;;;;;;;;;4907641;29;20499;-89
2023/08/16 22:50:38;;;;;;;13.43;1.35;;;;;;;;;;4923681;29;20072;-90
2023/08/16 22:53:09;;;;;;;3.13;1.33;;;;;;;;;;4906981;29;20052;-90
2023/08/16 22:55:40;;;;;;;3.95;1.05;;;;;;;;;;4908799;29;20107;-90
2023/08/16 22:58:34;;;;;;;6.47;1.17;;;;;;;;;;4912197;29;20095;-90
2023/08/16 23:01:10;;;;;;;7.68;1.70;;;;;;;;;;4910473;29;20044;-89
2023/08/16 23:03:43;;;;;;;8.20;1.50;;;;;;;;;;4914007;29;20082;-88
2023/08/16 23:06:15;;;;;;;4.28;1.23;;;;;;;;;;4916615;29;20076;-88
2023/08/16 23:08:50;;;;;;;7.43;1.20;;;;;;;;;;4916857;29;20055;-88
2023/08/16 23:11:27;;;;;;;7.45;1.63;;;;;;;;;;4935456;29;20039;-89
2023/08/16 23:19:35;;;;;;;5.15;1.40;;;;;;;;;;5043867;23;20303;-89
2023/08/16 23:22:12;;;;;;;3.97;1.42;;;;;;;;;;4915740;29;20056;-89
2023/08/16 23:24:45;;;;;;;6.70;1.35;;;;;;;;;;4915792;29;20052;-89
2023/08/16 23:27:29;;;;;;;4.20;1.50;;;;;;;;;;4931826;29;20047;-89
2023/08/16 23:30:03;;;;;;;3.65;1.30;;;;;;;;;;4914059;29;20051;-89
2023/08/16 23:32:53;;;;;;;5.57;2.13;;;;;;;;;;4931252;29;20052;-88
2023/08/16 23:35:34;;;;;;;6.40;1.70;;;;;;;;;;4916485;29;20059;-89
2023/08/16 23:38:07;;;;;;;8.15;1.30;;;;;;;;;;4930264;29;20060;-87
2023/08/16 23:40:50;;;;;;;2.53;1.55;;;;;;;;;;4915452;29;20056;-90
2023/08/16 23:43:34;;;;;;;3.85;1.48;;;;;;;;;;4886607;29;20056;-89
2023/08/16 23:46:03;;;;;;;6.47;1.60;;;;;;;;;;4929300;29;20052;-89
2023/08/16 23:52:06;;;;;;;9.05;2.40;;;;;;;;;;4880311;29;20120;-88
2023/08/16 23:54:42;;;;;;;3.33;1.35;;;;;;;;;;4929331;29;20320;-89
2023/08/16 23:57:42;;;;;;;4.05;1.73;;;;;;;;;;4914144;29;20084;-90
